createdAt,value
2018-12-11T00:00:54.943Z,99717.52
2018-12-11T00:03:23.044Z,99718.02
2018-12-11T00:05:51.125Z,99712.81
2018-12-11T00:08:19.281Z,99706.11
2018-12-11T00:10:47.453Z,99707.53
2018-12-11T00:13:15.577Z,99720.25
2018-12-11T00:15:43.799Z,99721.34
2018-12-11T00:18:11.891Z,99727.44
2018-12-11T00:20:40.077Z,99717.75
2018-12-11T00:23:08.270Z,99705.20
2018-12-11T00:25:36.482Z,99712.39
2018-12-11T00:28:04.609Z,99711.45
2018-12-11T00:30:32.716Z,99713.83
2018-12-11T00:33:01.513Z,99702.08
2018-12-11T00:35:29.569Z,99715.56
2018-12-11T00:37:57.656Z,99714.89
2018-12-11T00:40:25.752Z,99713.99
2018-12-11T00:42:53.851Z,99707.02
2018-12-11T00:45:21.968Z,99717.90
2018-12-11T00:47:50.904Z,99714.17
2018-12-11T00:50:19.076Z,99714.31
2018-12-11T00:52:47.148Z,99726.24
2018-12-11T00:55:15.255Z,99730.94
2018-12-11T00:57:43.304Z,99739.04
2018-12-11T01:00:11.705Z,99744.14
2018-12-11T01:02:41.003Z,99742.01
2018-12-11T01:05:09.356Z,99742.50
2018-12-11T01:07:37.443Z,99733.95
2018-12-11T01:10:08.651Z,99724.21
2018-12-11T01:12:37.148Z,99744.11
2018-12-11T01:15:06.659Z,99750.85
2018-12-11T01:17:34.930Z,99753.11
2018-12-11T01:20:03.488Z,99746.86
2018-12-11T01:22:31.590Z,99757.73
2018-12-11T01:24:59.714Z,99754.94
2018-12-11T01:27:27.864Z,99755.16
2018-12-11T01:29:55.975Z,99767.92
2018-12-11T01:32:24.044Z,99764.03
2018-12-11T01:34:52.122Z,99766.15
2018-12-11T01:37:20.229Z,99772.59
2018-12-11T01:39:48.933Z,99769.31
2018-12-11T01:42:17.084Z,99772.37
2018-12-11T01:44:45.202Z,99780.22
2018-12-11T01:47:13.276Z,99786.81
2018-12-11T01:49:41.475Z,99791.89
2018-12-11T01:52:09.550Z,99791.12
2018-12-11T01:54:37.938Z,99794.72
2018-12-11T01:57:05.971Z,99790.75
2018-12-11T01:59:34.203Z,99785.40
2018-12-11T02:02:02.887Z,99792.69
2018-12-11T02:04:31.185Z,99774.02
2018-12-11T02:06:59.294Z,99784.89
2018-12-11T02:09:27.377Z,99775.52
2018-12-11T02:11:55.524Z,99769.78
2018-12-11T02:14:28.653Z,99777.62
2018-12-11T02:16:56.854Z,99760.62
2018-12-11T02:19:24.993Z,99769.38
2018-12-11T02:21:53.212Z,99766.77
2018-12-11T02:24:21.377Z,99756.83
2018-12-11T02:26:49.581Z,99757.95
2018-12-11T02:29:17.718Z,99757.38
2018-12-11T02:31:45.862Z,99762.57
2018-12-11T02:34:13.906Z,99757.77
2018-12-11T02:36:41.950Z,99749.84
2018-12-11T02:39:10.026Z,99752.96
2018-12-11T02:41:38.080Z,99755.84
2018-12-11T02:44:06.176Z,99744.11
2018-12-11T02:46:34.299Z,99737.36
2018-12-11T02:49:03.216Z,99746.03
2018-12-11T02:51:31.302Z,99736.36
2018-12-11T02:53:59.435Z,99730.32
2018-12-11T02:56:27.582Z,99729.61
2018-12-11T02:58:56.262Z,99726.54
2018-12-11T03:01:24.590Z,99717.19
2018-12-11T03:03:52.776Z,99723.77
2018-12-11T03:06:20.969Z,99719.17
2018-12-11T03:08:49.069Z,99725.14
2018-12-11T03:11:17.890Z,99720.89
2018-12-11T03:13:46.148Z,99729.78
2018-12-11T03:16:14.246Z,99729.63
2018-12-11T03:18:42.290Z,99735.50
2018-12-11T03:21:10.449Z,99740.73
2018-12-11T03:23:38.584Z,99736.58
2018-12-11T03:26:06.766Z,99740.78
2018-12-11T03:28:35.125Z,99738.86
2018-12-11T03:31:03.272Z,99742.59
2018-12-11T03:33:31.421Z,99745.52
2018-12-11T03:35:59.549Z,99745.98
2018-12-11T03:38:27.718Z,99751.55
2018-12-11T03:40:55.827Z,99749.64
2018-12-11T03:43:23.973Z,99752.69
2018-12-11T03:45:52.160Z,99758.95
2018-12-11T03:48:20.330Z,99760.24
2018-12-11T03:50:48.393Z,99757.99
2018-12-11T03:53:17.325Z,99761.27
2018-12-11T03:55:45.443Z,99753.88
2018-12-11T03:58:13.577Z,99754.74
2018-12-11T04:00:41.766Z,99764.15
2018-12-11T04:03:10.000Z,99768.98
2018-12-11T04:05:38.092Z,99764.52
2018-12-11T04:08:06.563Z,99762.23
2018-12-11T04:10:34.920Z,99762.31
2018-12-11T04:13:03.127Z,99762.77
2018-12-11T04:15:31.507Z,99765.16
2018-12-11T04:17:59.578Z,99772.36
2018-12-11T04:20:27.716Z,99774.42
2018-12-11T04:22:55.866Z,99775.73
2018-12-11T04:25:24.072Z,99780.03
2018-12-11T04:27:52.238Z,99782.91
2018-12-11T04:30:20.899Z,99790.38
2018-12-11T04:32:48.953Z,99796.72
2018-12-11T04:35:17.450Z,99795.09
2018-12-11T04:37:45.586Z,99798.61
2018-12-11T04:40:13.744Z,99797.88
2018-12-11T04:42:41.927Z,99787.45
2018-12-11T04:45:10.164Z,99783.41
2018-12-11T04:47:38.347Z,99796.28
2018-12-11T04:50:06.729Z,99797.64
2018-12-11T04:52:34.888Z,99791.80
2018-12-11T04:55:03.465Z,99800.31
2018-12-11T04:57:31.538Z,99802.34
2018-12-11T04:59:59.664Z,99798.16
2018-12-11T05:02:27.774Z,99785.25
2018-12-11T05:04:55.909Z,99782.42
2018-12-11T05:07:23.996Z,99788.37
2018-12-11T05:09:52.105Z,99784.81
2018-12-11T05:12:20.259Z,99789.56
2018-12-11T05:14:48.377Z,99787.60
2018-12-11T05:17:16.508Z,99790.52
2018-12-11T05:19:44.580Z,99794.26
2018-12-11T05:22:12.705Z,99788.91
2018-12-11T05:24:41.008Z,99797.38
2018-12-11T05:27:10.070Z,99794.46
2018-12-11T05:29:38.215Z,99795.00
2018-12-11T05:32:06.379Z,99800.27
2018-12-11T05:34:34.620Z,99797.84
2018-12-11T05:37:03.052Z,99791.41
2018-12-11T05:39:31.231Z,99788.96
2018-12-11T05:41:59.412Z,99790.91
2018-12-11T05:44:27.528Z,99782.42
2018-12-11T05:46:55.696Z,99780.09
2018-12-11T05:49:23.867Z,99786.08
2018-12-11T05:51:52.026Z,99779.53
2018-12-11T05:54:20.141Z,99783.19
2018-12-11T05:56:48.259Z,99782.36
2018-12-11T05:59:16.428Z,99785.98
2018-12-11T06:01:44.725Z,99788.27
2018-12-11T06:04:12.831Z,99788.58
2018-12-11T06:06:40.931Z,99792.81
2018-12-11T06:09:09.190Z,99791.87
2018-12-11T06:11:37.405Z,99789.34
2018-12-11T06:14:05.597Z,99792.46
2018-12-11T06:16:33.987Z,99793.41
2018-12-11T06:19:02.146Z,99797.78
2018-12-11T06:21:30.323Z,99798.79
2018-12-11T06:24:05.695Z,99795.66
2018-12-11T06:26:33.834Z,99808.70
2018-12-11T06:29:03.021Z,99808.14
2018-12-11T06:31:33.652Z,99806.12
2018-12-11T06:34:01.776Z,99802.48
2018-12-11T06:36:29.956Z,99803.42
2018-12-11T06:38:58.104Z,99810.27
2018-12-11T06:41:26.198Z,99806.30
2018-12-11T06:43:54.290Z,99820.89
2018-12-11T06:46:22.462Z,99825.89
2018-12-11T06:48:50.587Z,99825.38
2018-12-11T06:51:18.718Z,99825.14
2018-12-11T06:53:46.830Z,99823.91
2018-12-11T06:56:14.982Z,99819.08
2018-12-11T06:58:43.070Z,99826.25
2018-12-11T07:01:11.232Z,99818.07
2018-12-11T07:03:39.342Z,99819.58
2018-12-11T07:06:07.473Z,99814.53
2018-12-11T07:08:36.167Z,99810.80
2018-12-11T07:11:04.386Z,99806.94
2018-12-11T07:13:32.524Z,99811.56
2018-12-11T07:16:00.660Z,99814.34
2018-12-11T07:18:28.764Z,99811.92
2018-12-11T07:20:56.878Z,99802.52
2018-12-11T07:23:25.021Z,99812.00
2018-12-11T07:25:53.193Z,99819.70
2018-12-11T07:28:21.286Z,99819.91
2018-12-11T07:30:49.581Z,99827.77
2018-12-11T07:33:17.704Z,99825.55
2018-12-11T07:35:45.872Z,99824.59
2018-12-11T07:38:14.024Z,99831.03
2018-12-11T07:40:42.131Z,99827.44
2018-12-11T07:43:10.271Z,99836.95
2018-12-11T07:45:38.732Z,99832.37
2018-12-11T07:48:07.422Z,99837.86
2018-12-11T07:50:35.626Z,99837.41
2018-12-11T07:53:06.454Z,99829.31
2018-12-11T07:55:34.048Z,99836.61
2018-12-11T07:58:02.210Z,99837.42
2018-12-11T08:00:30.524Z,99844.63
2018-12-11T08:02:58.706Z,99837.81
2018-12-11T08:05:27.028Z,99849.92
2018-12-11T08:07:55.203Z,99846.11
2018-12-11T08:10:24.200Z,99857.49
2018-12-11T08:12:52.449Z,99855.84
2018-12-11T08:15:21.298Z,99849.20
2018-12-11T08:17:50.317Z,99848.04
2018-12-11T08:20:18.468Z,99845.52
2018-12-11T08:22:46.580Z,99846.87
2018-12-11T08:25:14.926Z,99844.56
2018-12-11T08:27:42.974Z,99849.75
2018-12-11T08:30:11.082Z,99855.88
2018-12-11T08:32:39.240Z,99863.70
2018-12-11T08:35:07.539Z,99856.30
2018-12-11T08:37:35.691Z,99865.84
2018-12-11T08:40:04.438Z,99857.70
2018-12-11T08:42:32.621Z,99859.58
2018-12-11T08:45:00.761Z,99862.08
2018-12-11T08:47:28.922Z,99865.13
2018-12-11T08:49:57.058Z,99863.70
2018-12-11T08:52:25.213Z,99869.70
2018-12-11T08:54:53.335Z,99871.21
2018-12-11T08:57:21.496Z,99872.20
2018-12-11T08:59:49.611Z,99874.22
2018-12-11T09:02:17.825Z,99874.77
2018-12-11T09:04:45.955Z,99871.00
2018-12-11T09:07:14.810Z,99871.16
2018-12-11T09:09:42.946Z,99873.72
2018-12-11T09:12:11.044Z,99874.66
2018-12-11T09:14:39.185Z,99835.13
2018-12-11T09:17:10.250Z,99874.12
2018-12-11T09:19:37.536Z,99880.36
2018-12-11T09:22:05.694Z,99877.91
2018-12-11T09:24:33.837Z,99875.06
2018-12-11T09:27:02.044Z,99872.84
2018-12-11T09:29:30.197Z,99868.48
2018-12-11T09:31:58.357Z,99868.53
2018-12-11T09:34:26.509Z,99874.89
2018-12-11T09:36:54.721Z,99873.41
2018-12-11T09:39:22.882Z,99872.64
2018-12-11T09:41:51.092Z,99870.34
2018-12-11T09:44:19.400Z,99866.80
2018-12-11T09:46:47.525Z,99862.73
2018-12-11T09:49:15.762Z,99862.98
2018-12-11T09:51:43.960Z,99863.13
2018-12-11T09:54:12.610Z,99859.41
2018-12-11T09:56:40.720Z,99858.06
2018-12-11T09:59:08.800Z,99854.82
2018-12-11T10:01:36.871Z,99858.87
2018-12-11T10:04:05.158Z,99862.70
2018-12-11T10:06:33.290Z,99864.42
2018-12-11T10:09:01.480Z,99865.83
2018-12-11T10:11:30.273Z,99863.58
2018-12-11T10:13:58.655Z,99856.84
2018-12-11T10:16:26.799Z,99856.11
2018-12-11T10:18:55.432Z,99850.70
2018-12-11T10:21:24.164Z,99855.45
2018-12-11T10:23:57.331Z,99855.39
2018-12-11T10:26:25.402Z,99859.14
2018-12-11T10:28:53.607Z,99865.66
2018-12-11T10:31:21.813Z,99859.16
2018-12-11T10:33:50.029Z,99808.59
2018-12-11T10:36:18.194Z,99852.93
2018-12-11T10:38:46.378Z,99856.67
2018-12-11T10:41:14.440Z,99855.84
2018-12-11T10:43:42.510Z,99852.86
2018-12-11T10:46:10.765Z,99846.87
2018-12-11T10:48:38.886Z,99846.64
2018-12-11T10:51:07.013Z,99846.16
2018-12-11T10:53:35.187Z,99846.66
2018-12-11T10:56:03.467Z,99850.92
2018-12-11T10:58:31.566Z,99847.82
2018-12-11T11:01:05.403Z,99859.30
2018-12-11T11:03:33.525Z,99858.36
2018-12-11T11:06:01.685Z,99862.42
2018-12-11T11:08:29.765Z,99859.81
2018-12-11T11:10:57.963Z,99861.73
2018-12-11T11:13:26.106Z,99858.71
2018-12-11T11:15:54.275Z,99854.13
2018-12-11T11:18:22.350Z,99856.20
2018-12-11T11:20:50.533Z,99854.14
2018-12-11T11:23:18.804Z,99855.30
2018-12-11T11:25:47.172Z,99862.26
2018-12-11T11:28:15.305Z,99853.78
2018-12-11T11:30:43.492Z,99852.74
2018-12-11T11:33:11.643Z,99858.27
2018-12-11T11:35:39.767Z,99852.47
2018-12-11T11:38:07.957Z,99859.98
2018-12-11T11:40:36.047Z,99855.91
2018-12-11T11:43:04.228Z,99852.52
2018-12-11T11:45:32.333Z,99853.13
2018-12-11T11:48:00.469Z,99854.38
2018-12-11T11:50:28.853Z,99856.56
2018-12-11T11:52:56.974Z,99852.48
2018-12-11T11:55:25.086Z,99852.59
2018-12-11T11:57:53.261Z,99852.52
2018-12-11T12:00:21.439Z,99857.00
2018-12-11T12:02:49.596Z,99857.95
2018-12-11T12:05:18.279Z,99854.62
2018-12-11T12:07:46.413Z,99859.66
2018-12-11T12:10:14.465Z,99855.80
2018-12-11T12:12:42.573Z,99857.34
2018-12-11T12:15:10.832Z,99860.37
2018-12-11T12:17:39.045Z,99858.25
2018-12-11T12:20:09.315Z,99859.03
2018-12-11T12:22:37.540Z,99857.30
2018-12-11T12:25:06.341Z,99859.56
2018-12-11T12:27:34.572Z,99854.63
2018-12-11T12:30:02.966Z,99852.99
2018-12-11T12:32:31.007Z,99844.16
2018-12-11T12:34:59.449Z,99851.63
2018-12-11T12:37:27.554Z,99847.40
2018-12-11T12:39:55.961Z,99844.73
2018-12-11T12:42:24.073Z,99851.81
2018-12-11T12:44:52.596Z,99846.81
2018-12-11T12:47:21.029Z,99846.36
2018-12-11T12:49:50.652Z,99845.14
2018-12-11T12:52:19.092Z,99838.84
2018-12-11T12:54:47.357Z,99843.72
2018-12-11T12:57:15.477Z,99832.90
2018-12-11T12:59:43.661Z,99835.13
2018-12-11T13:02:11.943Z,99822.19
2018-12-11T13:04:40.193Z,99824.92
2018-12-11T13:07:08.428Z,99828.98
2018-12-11T13:09:36.553Z,99827.47
2018-12-11T13:12:04.852Z,99829.27
2018-12-11T13:14:33.152Z,99834.02
2018-12-11T13:17:01.310Z,99834.96
2018-12-11T13:19:29.460Z,99832.88
2018-12-11T13:21:57.529Z,99834.36
2018-12-11T13:24:25.725Z,99831.20
2018-12-11T13:26:53.877Z,99835.67
2018-12-11T13:29:21.920Z,99836.11
2018-12-11T13:31:50.012Z,99841.82
2018-12-11T13:34:18.161Z,99851.05
2018-12-11T13:36:46.426Z,99843.05
2018-12-11T13:39:14.537Z,99845.39
2018-12-11T13:41:42.702Z,99852.50
2018-12-11T13:44:10.956Z,99844.38
2018-12-11T13:46:39.904Z,99845.34
2018-12-11T13:49:08.064Z,99854.30
2018-12-11T13:51:36.189Z,99850.50
2018-12-11T13:54:04.356Z,99856.21
2018-12-11T13:56:32.617Z,99862.04
2018-12-11T13:59:00.735Z,99845.53
2018-12-11T14:01:28.878Z,99847.37
2018-12-11T14:03:56.964Z,99850.23
2018-12-11T14:06:25.243Z,99859.84
2018-12-11T14:08:53.338Z,99856.49
2018-12-11T14:11:21.486Z,99860.58
2018-12-11T14:13:49.654Z,99863.03
2018-12-11T14:16:17.735Z,99862.89
2018-12-11T14:18:45.974Z,99862.80
2018-12-11T14:21:14.237Z,99860.30
2018-12-11T14:23:42.431Z,99858.38
2018-12-11T14:26:10.539Z,99854.23
2018-12-11T14:28:39.309Z,99857.09
2018-12-11T14:31:07.473Z,99861.34
2018-12-11T14:33:35.592Z,99865.75
2018-12-11T14:36:03.788Z,99864.34
2018-12-11T14:38:32.029Z,99862.89
2018-12-11T14:41:00.094Z,99864.00
2018-12-11T14:43:28.209Z,99864.51
2018-12-11T14:45:56.296Z,99864.42
2018-12-11T14:48:24.488Z,99862.22
2018-12-11T14:50:52.666Z,99862.38
2018-12-11T14:53:20.789Z,99862.08
2018-12-11T14:55:54.187Z,99869.39
2018-12-11T14:58:22.378Z,99867.53
2018-12-11T15:00:50.507Z,99871.56
2018-12-11T15:03:18.652Z,99868.20
2018-12-11T15:05:47.647Z,99862.12
2018-12-11T15:08:15.778Z,99862.08
2018-12-11T15:10:44.025Z,99864.66
2018-12-11T15:13:12.286Z,99866.63
2018-12-11T15:15:40.600Z,99864.86
2018-12-11T15:18:08.703Z,99866.66
2018-12-11T15:20:36.889Z,99867.12
2018-12-11T15:23:05.063Z,99872.19
2018-12-11T15:25:33.289Z,99877.80
2018-12-11T15:28:01.464Z,99878.73
2018-12-11T15:30:29.588Z,99881.77
2018-12-11T15:32:57.657Z,99881.22
2018-12-11T15:35:26.175Z,99880.13
2018-12-11T15:37:54.560Z,99879.75
2018-12-11T15:40:22.776Z,99884.11
2018-12-11T15:42:51.081Z,99879.80
2018-12-11T15:45:24.225Z,99877.59
2018-12-11T15:47:52.364Z,99881.70
2018-12-11T15:50:20.586Z,99881.70
2018-12-11T15:52:48.698Z,99880.69
2018-12-11T15:55:17.237Z,99881.20
2018-12-11T15:57:45.427Z,99886.74
2018-12-11T16:00:13.814Z,99884.63
2018-12-11T16:02:41.941Z,99884.09
2018-12-11T16:05:10.321Z,99891.67
2018-12-11T16:07:38.450Z,99890.87
2018-12-11T16:10:07.724Z,99893.16
2018-12-11T16:12:35.819Z,99897.13
2018-12-11T16:15:04.749Z,99896.88
2018-12-11T16:17:33.745Z,99898.28
2018-12-11T16:20:01.837Z,99897.47
2018-12-11T16:22:30.494Z,99905.13
2018-12-11T16:24:59.226Z,99900.06
2018-12-11T16:27:27.836Z,99905.65
2018-12-11T16:29:56.184Z,99903.61
2018-12-11T16:32:24.363Z,99904.35
2018-12-11T16:34:52.804Z,99904.92
2018-12-11T16:37:21.304Z,99909.97
2018-12-11T16:39:49.377Z,99904.55
2018-12-11T16:42:17.610Z,99908.46
2018-12-11T16:44:45.965Z,99907.91
2018-12-11T16:47:14.108Z,99904.59
2018-12-11T16:49:42.178Z,99914.37
2018-12-11T16:52:12.356Z,99912.68
2018-12-11T16:54:40.520Z,99907.64
2018-12-11T16:57:08.669Z,99906.89
2018-12-11T16:59:36.868Z,99913.62
2018-12-11T17:02:10.479Z,99911.25
2018-12-11T17:04:38.902Z,99915.04
2018-12-11T17:07:08.352Z,99913.59
2018-12-11T17:09:40.497Z,99910.31
2018-12-11T17:12:09.081Z,99910.14
2018-12-11T17:14:42.331Z,99913.84
2018-12-11T17:17:10.503Z,99916.75
2018-12-11T17:19:38.711Z,99917.08
2018-12-11T17:22:07.323Z,99926.19
2018-12-11T17:24:35.674Z,99928.81
2018-12-11T17:27:03.828Z,99935.33
2018-12-11T17:29:32.021Z,99934.56
2018-12-11T17:32:00.104Z,99935.28
2018-12-11T17:34:28.284Z,99935.63
2018-12-11T17:36:56.399Z,99936.49
2018-12-11T17:39:24.522Z,99938.44
2018-12-11T17:41:52.587Z,99935.19
2018-12-11T17:44:20.733Z,99938.63
2018-12-11T17:46:48.940Z,99938.67
2018-12-11T17:49:17.068Z,99942.09
2018-12-11T17:54:10.705Z,99946.09
2018-12-11T17:56:39.370Z,99944.23
2018-12-11T17:59:07.570Z,99949.50
2018-12-11T18:01:36.401Z,99947.87
2018-12-11T18:04:05.941Z,99950.91
2018-12-11T18:06:37.768Z,99955.59
2018-12-11T18:09:12.527Z,99958.08
2018-12-11T18:11:41.731Z,99957.10
2018-12-11T18:14:16.228Z,99959.05
2018-12-11T18:16:47.913Z,99961.77
2018-12-11T18:19:18.082Z,99924.39
2018-12-11T18:21:49.962Z,99961.04
2018-12-11T18:24:23.014Z,99957.45
2018-12-11T18:26:57.527Z,99956.58
2018-12-11T18:29:27.079Z,99959.49
2018-12-11T18:31:59.199Z,99958.19
2018-12-11T18:34:38.102Z,99959.94
2018-12-11T18:37:09.915Z,99959.48
2018-12-11T18:39:41.266Z,99959.89
2018-12-11T18:42:12.888Z,99956.64
2018-12-11T18:44:46.981Z,99959.26
2018-12-11T18:47:18.549Z,99952.85
2018-12-11T18:49:53.055Z,99950.23
2018-12-11T18:52:25.066Z,99955.19
2018-12-11T18:54:58.940Z,99957.93
2018-12-11T18:57:32.668Z,99956.90
2018-12-11T19:00:08.499Z,99961.61
2018-12-11T19:02:42.943Z,99960.27
2018-12-11T19:05:16.351Z,99961.34
2018-12-11T19:08:00.557Z,99955.65
2018-12-11T19:10:29.205Z,99964.45
2018-12-11T19:12:57.679Z,99959.67
2018-12-11T19:15:25.731Z,99955.13
2018-12-11T19:17:53.833Z,99959.59
2018-12-11T19:20:22.240Z,99957.73
2018-12-11T19:22:50.640Z,99952.28
2018-12-11T19:25:41.395Z,99953.75
2018-12-11T19:28:10.013Z,99948.95
2018-12-11T19:30:39.083Z,99954.78
2018-12-11T19:33:21.802Z,99956.02
2018-12-11T19:35:50.014Z,99956.22
2018-12-11T19:38:18.378Z,99958.67
2018-12-11T19:40:46.508Z,99955.39
2018-12-11T19:43:14.735Z,99960.49
2018-12-11T19:45:42.947Z,99959.98
2018-12-11T19:48:11.258Z,99971.73
2018-12-11T19:50:39.565Z,99969.59
2018-12-11T19:53:07.736Z,99969.38
2018-12-11T19:55:35.978Z,99970.48
2018-12-11T19:58:04.272Z,99967.94
2018-12-11T20:00:32.501Z,99962.73
2018-12-11T20:03:00.775Z,99960.12
2018-12-11T20:05:29.115Z,99962.44
2018-12-11T20:07:57.372Z,99962.47
2018-12-11T20:10:28.462Z,99957.55
2018-12-11T20:12:56.913Z,99956.82
2018-12-11T20:19:18.402Z,99956.10
2018-12-11T20:21:52.538Z,99958.28
2018-12-11T20:24:30.519Z,99961.67
2018-12-11T20:27:04.313Z,99962.67
2018-12-11T20:29:38.397Z,99964.02
2018-12-11T20:32:12.431Z,99963.30
2018-12-11T20:34:43.838Z,99961.03
2018-12-11T20:37:18.191Z,99964.02
2018-12-11T20:39:46.526Z,99961.94
2018-12-11T20:42:14.729Z,99960.52
2018-12-11T20:44:43.186Z,99955.97
2018-12-11T20:47:11.382Z,99958.94
2018-12-11T20:49:39.624Z,99959.24
2018-12-11T20:52:07.775Z,99965.30
2018-12-11T20:54:36.022Z,99969.56
2018-12-11T20:57:04.178Z,99975.84
2018-12-11T20:59:32.388Z,99973.25
2018-12-11T21:02:00.551Z,99973.50
2018-12-11T21:04:28.846Z,99976.63
2018-12-11T21:06:57.041Z,99967.91
2018-12-11T21:09:25.289Z,99961.30
2018-12-11T21:11:53.534Z,99962.70
2018-12-11T21:14:26.017Z,99965.30
2018-12-11T21:16:54.239Z,99962.28
2018-12-11T21:19:22.396Z,99955.37
2018-12-11T21:21:50.574Z,99955.13
2018-12-11T21:24:19.168Z,99956.02
2018-12-11T21:26:47.481Z,99958.50
2018-12-11T21:29:16.222Z,99965.19
2018-12-11T21:31:44.406Z,99961.52
2018-12-11T21:34:12.635Z,99972.11
2018-12-11T21:36:40.807Z,99968.73
2018-12-11T21:39:09.055Z,99972.88
2018-12-11T21:41:37.231Z,99971.17
2018-12-11T21:44:05.357Z,99972.38
2018-12-11T21:46:33.560Z,99973.55
2018-12-11T21:49:02.142Z,99975.59
2018-12-11T21:51:30.370Z,99974.19
2018-12-11T21:54:03.592Z,99976.24
2018-12-11T21:56:31.714Z,99969.34
2018-12-11T21:58:59.865Z,99975.12
2018-12-11T22:01:28.046Z,99972.38
2018-12-11T22:03:56.408Z,99968.13
2018-12-11T22:06:24.841Z,99969.01
2018-12-11T22:08:52.955Z,99970.82
2018-12-11T22:11:20.999Z,99966.07
2018-12-11T22:13:49.540Z,99969.68
2018-12-11T22:16:18.323Z,99967.27
2018-12-11T22:18:46.613Z,99973.16
2018-12-11T22:21:14.816Z,99966.44
2018-12-11T22:23:42.984Z,99970.86
2018-12-11T22:26:11.529Z,99931.16
2018-12-11T22:28:40.310Z,99968.88
2018-12-11T22:31:08.529Z,99967.39
2018-12-11T22:33:37.194Z,99970.89
2018-12-11T22:36:05.399Z,99984.44
2018-12-11T22:38:33.767Z,99980.66
2018-12-11T22:41:01.917Z,99978.87
2018-12-11T22:43:30.113Z,99984.61
2018-12-11T22:46:03.694Z,99984.56
2018-12-11T22:48:31.917Z,99982.42
2018-12-11T22:51:00.166Z,99985.78
2018-12-11T22:53:28.260Z,99983.00
2018-12-11T22:55:56.719Z,99982.64
2018-12-11T22:58:24.872Z,99980.36
2018-12-11T23:00:53.292Z,99980.73
2018-12-11T23:03:21.463Z,99976.41
2018-12-11T23:05:49.756Z,99981.47
2018-12-11T23:08:17.913Z,99984.93
2018-12-11T23:10:46.016Z,99988.60
2018-12-11T23:13:14.175Z,99987.30
2018-12-11T23:15:42.463Z,99983.59
2018-12-11T23:18:10.597Z,99981.14
2018-12-11T23:20:38.688Z,99986.19
2018-12-11T23:23:06.892Z,99983.34
2018-12-11T23:28:35.288Z,99979.86
2018-12-11T23:31:03.603Z,99978.92
2018-12-11T23:33:31.851Z,99979.79
2018-12-11T23:36:00.043Z,99982.95
2018-12-11T23:38:28.153Z,99978.27
2018-12-11T23:40:56.366Z,99979.51
2018-12-11T23:43:24.574Z,99980.00
2018-12-11T23:46:06.556Z,99970.82
2018-12-11T23:48:34.707Z,99974.06
2018-12-11T23:51:02.875Z,99972.98
2018-12-11T23:53:30.994Z,99982.19
2018-12-11T23:55:59.190Z,99984.74
2018-12-11T23:58:28.109Z,99988.47
